Time;durP1;ratioP1;P1;durP2;ratioP2;P2;SDS_P1;SDS_P2;PMS_P1;PMS_P2;Temp;Humidity;BMP_temperature;BMP_pressure;BME280_temperature;BME280_humidity;BME280_pressure;Samples;Min_cycle;Max_cycle;Signal;HPM_P1;HPM_P2
2023/05/06 00:00:46;;;;;;;19.08;14.20;;;;;;;11.83;100.00;101702.00;4971795;28;20057;-86
2023/05/06 00:03:13;;;;;;;19.38;13.60;;;;;;;11.84;100.00;101703.78;4980011;28;20058;-85
2023/05/06 00:05:41;;;;;;;17.85;13.80;;;;;;;11.83;100.00;101707.28;4994990;28;20047;-85
2023/05/06 00:08:08;;;;;;;23.52;16.38;;;;;;;11.83;100.00;101709.91;4995563;28;20046;-85
2023/05/06 00:10:36;;;;;;;19.70;14.70;;;;;;;11.83;100.00;101704.63;5005849;28;20062;-85
2023/05/06 00:13:03;;;;;;;18.65;15.13;;;;;;;11.82;100.00;101706.41;5000180;28;20062;-85
2023/05/06 00:15:31;;;;;;;20.17;16.10;;;;;;;11.84;100.00;101703.78;4983202;28;20053;-85
2023/05/06 00:17:59;;;;;;;23.02;15.98;;;;;;;11.83;100.00;101702.00;4998279;28;20064;-84
2023/05/06 00:20:27;;;;;;;28.02;17.20;;;;;;;11.83;100.00;101696.72;5008620;28;20046;-85
2023/05/06 00:22:54;;;;;;;24.70;16.48;;;;;;;11.81;100.00;101694.03;5006570;28;20049;-85
2023/05/06 00:25:22;;;;;;;27.42;18.42;;;;;;;11.80;100.00;101696.69;4989173;28;20041;-85
2023/05/06 00:27:49;;;;;;;28.85;19.75;;;;;;;11.80;100.00;101709.91;4998298;28;20396;-85
2023/05/06 00:30:17;;;;;;;30.55;18.38;;;;;;;11.79;100.00;101701.06;4984385;28;20411;-83
2023/05/06 00:32:44;;;;;;;42.97;22.25;;;;;;;11.79;100.00;101701.06;5007810;28;20069;-83
2023/05/06 00:35:12;;;;;;;33.83;21.60;;;;;;;11.79;100.00;101690.50;5006473;28;20872;-85
2023/05/06 00:37:39;;;;;;;29.50;18.67;;;;;;;11.79;100.00;101694.91;5015795;28;20045;-85
2023/05/06 00:40:09;;;;;;;25.27;17.40;;;;;;;11.77;100.00;101699.28;4987031;28;20042;-86
2023/05/06 00:42:37;;;;;;;25.33;19.45;;;;;;;11.76;100.00;101698.41;5009366;28;20046;-84
2023/05/06 00:45:05;;;;;;;30.08;19.25;;;;;;;11.76;100.00;101693.13;4953340;28;20045;-84
2023/05/06 00:47:33;;;;;;;27.38;18.67;;;;;;;11.74;100.00;101692.22;4978084;28;20050;-85
2023/05/06 00:50:01;;;;;;;24.33;17.08;;;;;;;11.73;100.00;101694.84;4989562;28;20465;-83
2023/05/06 00:52:28;;;;;;;29.88;18.75;;;;;;;11.73;100.00;101686.94;4996084;28;20058;-84
2023/05/06 00:54:56;;;;;;;30.85;18.20;;;;;;;11.69;100.00;101686.88;4988855;28;20054;-84
2023/05/06 00:57:24;;;;;;;26.08;18.63;;;;;;;11.66;100.00;101678.94;4999383;28;20077;-84
2023/05/06 00:59:51;;;;;;;23.60;16.55;;;;;;;11.64;100.00;101679.75;4980956;28;20061;-83
2023/05/06 01:02:18;;;;;;;27.35;18.40;;;;;;;11.61;100.00;101669.19;4982674;28;20045;-86
2023/05/06 01:04:46;;;;;;;26.00;17.73;;;;;;;11.56;100.00;101676.16;4995586;28;20054;-83
2023/05/06 01:07:45;;;;;;;32.55;18.85;;;;;;;11.52;100.00;101675.22;5016590;28;20578;-84
2023/05/06 01:10:20;;;;;;;26.20;17.17;;;;;;;11.47;100.00;101679.56;5002025;28;20067;-85
2023/05/06 01:12:51;;;;;;;30.27;18.52;;;;;;;11.43;100.00;101690.94;5006676;28;20061;-85
2023/05/06 01:15:33;;;;;;;22.05;15.48;;;;;;;11.39;100.00;101683.88;5015041;28;20064;-86
2023/05/06 01:18:06;;;;;;;20.80;14.68;;;;;;;11.34;100.00;101682.91;4981226;28;20042;-85
2023/05/06 01:20:37;;;;;;;21.13;15.02;;;;;;;11.30;100.00;101684.63;5017279;28;20428;-84
2023/05/06 01:23:10;;;;;;;20.45;14.90;;;;;;;11.25;100.00;101673.13;5006197;28;20051;-84
2023/05/06 01:25:38;;;;;;;18.98;14.73;;;;;;;11.23;100.00;101680.13;4992311;28;20042;-84
2023/05/06 01:28:09;;;;;;;21.73;15.95;;;;;;;11.17;100.00;101683.59;5011319;28;20503;-85
2023/05/06 01:30:45;;;;;;;20.77;14.93;;;;;;;11.14;100.00;101685.28;5012317;28;20050;-85
2023/05/06 01:33:36;;;;;;;20.75;15.20;;;;;;;11.10;100.00;101682.59;4975811;28;20045;-85
2023/05/06 01:36:23;;;;;;;26.10;15.27;;;;;;;11.08;100.00;101679.06;4999146;28;20042;-85
2023/05/06 01:39:08;;;;;;;22.42;15.45;;;;;;;11.05;100.00;101689.53;5005046;28;20049;-84
2023/05/06 01:41:39;;;;;;;22.58;16.13;;;;;;;11.01;100.00;101687.72;5012274;28;20069;-85
2023/05/06 01:44:10;;;;;;;21.90;15.23;;;;;;;10.99;100.00;101696.50;5013407;28;20049;-86
2023/05/06 01:46:41;;;;;;;21.92;15.63;;;;;;;10.96;100.00;101694.69;5017364;28;20046;-85
2023/05/06 01:49:10;;;;;;;17.63;14.52;;;;;;;10.95;100.00;101697.31;4987816;28;20042;-86
2023/05/06 01:51:37;;;;;;;22.98;16.52;;;;;;;10.93;100.00;101699.94;5014582;28;20058;-83
2023/05/06 01:54:05;;;;;;;18.75;15.40;;;;;;;10.93;100.00;101697.28;4997482;28;20421;-85
2023/05/06 01:56:32;;;;;;;25.48;16.77;;;;;;;10.95;100.00;101697.31;4993259;28;20035;-85
2023/05/06 01:59:00;;;;;;;32.08;20.52;;;;;;;10.96;100.00;101693.81;4998186;28;20046;-85
2023/05/06 02:01:27;;;;;;;29.20;19.48;;;;;;;10.98;100.00;101692.94;5001760;28;20054;-85
2023/05/06 02:03:55;;;;;;;30.77;19.42;;;;;;;11.00;100.00;101693.88;4987111;28;20073;-85
2023/05/06 02:06:22;;;;;;;24.05;17.98;;;;;;;11.02;100.00;101693.88;4998475;28;20046;-84
2023/05/06 02:08:50;;;;;;;25.85;18.50;;;;;;;11.02;100.00;101697.44;5014783;28;20049;-84
2023/05/06 02:11:21;;;;;;;23.42;18.33;;;;;;;11.03;100.00;101695.66;5011418;28;20067;-84
2023/05/06 02:13:51;;;;;;;28.38;18.88;;;;;;;11.02;100.00;101697.44;5010808;28;20053;-84
2023/05/06 02:16:20;;;;;;;36.50;20.42;;;;;;;11.05;100.00;101692.19;5000150;28;20061;-84
2023/05/06 02:18:48;;;;;;;37.05;20.40;;;;;;;11.05;100.00;101691.31;4998215;28;20065;-84
2023/05/06 02:21:15;;;;;;;24.27;18.80;;;;;;;11.02;100.00;101685.97;4988208;28;20053;-84
2023/05/06 02:23:46;;;;;;;25.63;19.35;;;;;;;11.02;100.00;101692.16;5015488;28;20042;-84
2023/05/06 02:26:13;;;;;;;24.90;17.95;;;;;;;11.00;100.00;101696.53;5015985;28;20399;-85
2023/05/06 02:28:41;;;;;;;24.95;18.30;;;;;;;10.99;100.00;101689.47;4995137;28;20066;-84
2023/05/06 02:31:13;;;;;;;27.13;19.17;;;;;;;10.97;100.00;101688.56;4984664;28;20518;-84
2023/05/06 02:33:42;;;;;;;31.50;19.63;;;;;;;10.97;100.00;101682.41;5019993;28;20073;-84
2023/05/06 02:36:10;;;;;;;22.27;17.45;;;;;;;10.93;100.00;101681.47;4991423;28;20038;-84
2023/05/06 02:38:39;;;;;;;25.58;18.05;;;;;;;10.89;100.00;101684.94;5018120;28;20054;-84
2023/05/06 02:41:09;;;;;;;21.75;17.25;;;;;;;10.84;100.00;101687.47;5000371;28;20046;-85
2023/05/06 02:43:36;;;;;;;24.63;16.88;;;;;;;10.79;100.00;101691.78;4997682;28;20054;-84
2023/05/06 02:46:05;;;;;;;21.73;16.08;;;;;;;10.74;100.00;101693.47;4995493;28;20050;-85
2023/05/06 02:48:32;;;;;;;22.17;15.38;;;;;;;10.68;100.00;101691.63;4990091;28;20423;-85
2023/05/06 02:51:00;;;;;;;23.17;16.10;;;;;;;10.63;100.00;101685.38;4971803;28;20049;-84
2023/05/06 02:53:29;;;;;;;21.35;15.48;;;;;;;10.61;100.00;101694.16;5010793;28;20060;-84
2023/05/06 02:55:56;;;;;;;34.58;16.48;;;;;;;10.56;100.00;101686.13;4998118;28;20440;-85
2023/05/06 02:58:25;;;;;;;68.55;18.65;;;;;;;10.54;100.00;101693.13;4981520;28;20057;-84
2023/05/06 03:00:54;;;;;;;45.88;16.73;;;;;;;10.53;100.00;101679.09;5015235;28;20534;-85
2023/05/06 03:03:22;;;;;;;26.33;16.48;;;;;;;10.53;100.00;101679.09;5016803;28;20046;-84
2023/05/06 03:05:50;;;;;;;18.65;14.23;;;;;;;10.53;100.00;101681.72;4994485;28;20054;-84
2023/05/06 03:08:17;;;;;;;18.05;14.98;;;;;;;10.52;100.00;101669.38;4956728;28;20038;-84
2023/05/06 03:10:45;;;;;;;24.15;17.58;;;;;;;10.52;100.00;101679.94;5010172;28;20058;-84
2023/05/06 03:13:14;;;;;;;22.98;16.33;;;;;;;10.53;100.00;101678.19;4983040;28;20054;-85
2023/05/06 03:15:42;;;;;;;25.77;18.55;;;;;;;10.54;100.00;101677.31;4977481;28;20062;-85
2023/05/06 03:18:09;;;;;;;44.15;23.25;;;;;;;10.56;100.00;101678.22;4981509;28;20057;-85
2023/05/06 03:20:41;;;;;;;22.20;17.77;;;;;;;10.58;100.00;101676.50;4982767;28;20065;-84
2023/05/06 03:23:08;;;;;;;27.02;17.92;;;;;;;10.59;100.00;101677.41;4965661;28;20053;-84
2023/05/06 03:25:36;;;;;;;24.73;17.48;;;;;;;10.59;100.00;101677.41;5001621;28;20411;-84
2023/05/06 03:28:04;;;;;;;25.15;17.77;;;;;;;10.58;100.00;101671.25;5002413;28;20073;-84
2023/05/06 03:30:32;;;;;;;26.60;16.73;;;;;;;10.58;100.00;101671.25;5007084;28;20050;-84
2023/05/06 03:33:05;;;;;;;24.17;17.17;;;;;;;10.60;100.00;101676.53;5019930;28;20038;-85
2023/05/06 03:35:33;;;;;;;25.42;16.50;;;;;;;10.61;100.00;101675.69;5016167;28;20058;-84
2023/05/06 03:38:02;;;;;;;19.42;17.08;;;;;;;10.62;100.00;101675.69;5002188;28;20046;-83
2023/05/06 03:40:42;;;;;;;;;;;;;;;10.62;100.00;101678.31;4989600;28;20058;-84
2023/05/06 03:43:11;;;;;;;23.70;16.83;;;;;;;10.60;100.00;101674.78;5014477;28;20386;-84
2023/05/06 03:45:38;;;;;;;19.85;15.98;;;;;;;10.60;100.00;101673.91;4987535;28;20050;-85
2023/05/06 03:48:07;;;;;;;27.83;18.65;;;;;;;10.57;100.00;101669.47;5014037;28;20053;-83
2023/05/06 03:50:38;;;;;;;21.75;16.52;;;;;;;10.54;100.00;101670.28;4988336;28;20057;-83
2023/05/06 03:53:06;;;;;;;22.83;18.23;;;;;;;10.53;100.00;101672.94;5002527;28;20049;-83
2023/05/06 03:55:36;;;;;;;26.73;18.65;;;;;;;10.49;100.00;101674.63;4986570;28;20065;-86
2023/05/06 03:58:04;;;;;;;22.30;17.20;;;;;;;10.48;100.00;101671.97;5014772;28;20034;-84
2023/05/06 04:00:32;;;;;;;28.77;18.30;;;;;;;10.46;100.00;101676.31;4991721;28;20061;-84
2023/05/06 04:02:59;;;;;;;25.00;18.33;;;;;;;10.44;100.00;101671.03;4973701;28;20372;-84
2023/05/06 04:05:34;;;;;;;21.17;16.83;;;;;;;10.44;100.00;101671.03;5009662;28;20050;-84
2023/05/06 04:08:01;;;;;;;24.13;16.52;;;;;;;10.47;100.00;101672.81;5017696;28;20388;-84
2023/05/06 04:10:29;;;;;;;66.63;22.98;;;;;;;10.48;100.00;101683.38;4969711;28;20045;-85
2023/05/06 04:13:03;;;;;;;23.35;16.70;;;;;;;10.50;100.00;101680.78;5010467;28;20523;-83
2023/05/06 04:15:37;;;;;;;20.05;15.68;;;;;;;10.54;100.00;101677.31;4998991;28;20050;-84
2023/05/06 04:18:10;;;;;;;23.33;16.95;;;;;;;10.57;100.00;101679.13;4996308;28;20042;-84
2023/05/06 04:20:40;;;;;;;30.58;19.27;;;;;;;10.60;100.00;101690.59;4999805;28;20054;-85
2023/05/06 04:23:08;;;;;;;23.00;17.27;;;;;;;10.63;100.00;101690.66;4993289;28;20451;-84
2023/05/06 04:25:36;;;;;;;20.52;15.73;;;;;;;10.65;100.00;101690.69;4971938;28;20062;-84
2023/05/06 04:28:11;;;;;;;22.35;15.23;;;;;;;10.68;100.00;101685.44;5013488;28;20045;-83
2023/05/06 04:30:38;;;;;;;26.10;15.77;;;;;;;10.72;100.00;101697.84;5015498;28;20057;-84
2023/05/06 04:33:07;;;;;;;35.22;16.80;;;;;;;10.73;100.00;101696.97;5012033;28;20054;-83
2023/05/06 04:35:36;;;;;;;25.10;13.60;;;;;;;10.76;100.00;101689.13;4985290;28;20061;-84
2023/05/06 04:38:05;;;;;;;16.55;11.02;;;;;;;10.78;100.00;101705.84;4996541;28;20057;-84
2023/05/06 04:40:35;;;;;;;19.73;11.13;;;;;;;10.77;100.00;101708.44;5013134;28;20061;-84
2023/05/06 04:43:03;;;;;;;18.48;12.23;;;;;;;10.77;100.00;101708.44;4982026;28;20054;-84
2023/05/06 04:45:36;;;;;;;49.20;17.05;;;;;;;10.74;100.00;101706.66;5029345;28;20054;-83
2023/05/06 04:48:08;;;;;;;16.25;11.73;;;;;;;10.71;100.00;101715.38;4993273;28;20061;-84
2023/05/06 04:50:36;;;;;;;13.27;11.87;;;;;;;10.71;100.00;101719.78;5028392;28;20057;-83
2023/05/06 04:53:10;;;;;;;56.20;17.30;;;;;;;10.70;100.00;101720.66;5024107;28;20289;-83
2023/05/06 04:55:37;;;;;;;73.15;21.13;;;;;;;10.67;100.00;101725.88;5030707;28;20049;-84
2023/05/06 04:58:06;;;;;;;55.38;19.65;;;;;;;10.65;100.00;101720.56;4986053;28;20049;-83
2023/05/06 05:00:35;;;;;;;21.80;15.20;;;;;;;10.65;100.00;101725.84;5013493;28;20065;-83
2023/05/06 05:03:03;;;;;;;20.80;16.17;;;;;;;10.67;100.00;101723.22;5012386;28;20037;-83
2023/05/06 05:05:33;;;;;;;19.15;15.10;;;;;;;10.67;100.00;101720.59;4998557;28;20055;-83
2023/05/06 05:08:01;;;;;;;19.85;15.95;;;;;;;10.69;100.00;101726.78;5032089;28;20049;-84
2023/05/06 05:10:34;;;;;;;17.88;14.98;;;;;;;10.71;100.00;101728.56;4981790;28;20046;-83
2023/05/06 05:13:01;;;;;;;23.48;16.25;;;;;;;10.78;100.00;101737.47;5012142;28;20407;-83
2023/05/06 05:15:29;;;;;;;46.88;18.65;;;;;;;10.81;100.00;101732.28;4973040;28;20589;-84
2023/05/06 05:17:56;;;;;;;51.45;18.00;;;;;;;10.84;100.00;101737.56;5017865;28;20060;-84
2023/05/06 05:20:24;;;;;;;33.88;16.88;;;;;;;10.88;100.00;101742.03;5029160;28;20049;-84
2023/05/06 05:22:51;;;;;;;104.55;22.55;;;;;;;10.91;100.00;101738.56;4997954;28;20075;-84
2023/05/06 05:25:20;;;;;;;44.70;14.27;;;;;;;10.91;100.00;101736.81;4994701;28;20054;-84
2023/05/06 05:27:48;;;;;;;81.75;18.35;;;;;;;10.91;100.00;101738.56;5002574;28;20046;-85
2023/05/06 05:30:16;;;;;;;90.07;19.40;;;;;;;10.90;100.00;101737.66;4969602;28;20053;-84
2023/05/06 05:32:44;;;;;;;51.50;16.83;;;;;;;10.88;100.00;101744.66;5033398;28;20053;-85
2023/05/06 05:35:15;;;;;;;69.60;17.45;;;;;;;10.90;100.00;101742.06;4993861;28;20412;-84
2023/05/06 05:37:45;;;;;;;60.50;17.85;;;;;;;10.93;100.00;101737.72;4984830;28;20064;-84
2023/05/06 05:40:13;;;;;;;31.52;15.35;;;;;;;10.98;100.00;101744.81;4991882;28;20058;-84
2023/05/06 05:42:42;;;;;;;47.45;15.77;;;;;;;11.03;100.00;101748.41;5011862;28;20050;-84
2023/05/06 05:45:20;;;;;;;56.80;20.70;;;;;;;11.08;100.00;101745.00;4961412;28;20065;-84
2023/05/06 05:47:49;;;;;;;60.92;21.75;;;;;;;11.12;100.00;101745.94;5001846;28;20045;-84
2023/05/06 05:50:17;;;;;;;53.88;20.92;;;;;;;11.16;100.00;101742.47;4996032;28;20049;-84
2023/05/06 05:52:45;;;;;;;31.25;16.58;;;;;;;11.21;100.00;101745.16;5033525;28;20054;-85
2023/05/06 05:55:13;;;;;;;46.95;18.92;;;;;;;11.24;100.00;101738.19;4997268;28;20054;-83
2023/05/06 05:57:43;;;;;;;36.13;18.55;;;;;;;11.29;100.00;101733.88;5031710;28;20042;-84
2023/05/06 06:00:12;;;;;;;42.55;19.90;;;;;;;11.33;100.00;101740.06;4965138;28;20075;-84
2023/05/06 06:02:46;;;;;;;28.40;16.75;;;;;;;11.37;100.00;101746.28;5016545;28;20058;-84
2023/05/06 06:05:18;;;;;;;25.83;17.52;;;;;;;11.43;100.00;101752.53;4980178;28;20058;-85
2023/05/06 06:07:46;;;;;;;30.35;16.77;;;;;;;11.47;100.00;101746.44;5033289;28;20065;-85
2023/05/06 06:10:14;;;;;;;31.83;16.27;;;;;;;11.51;100.00;101752.63;4992537;28;20054;-84
2023/05/06 06:12:43;;;;;;;23.58;16.13;;;;;;;11.52;100.00;101752.66;5005090;28;20060;-84
2023/05/06 06:15:14;;;;;;;20.10;16.17;;;;;;;11.57;100.00;101750.09;4972836;28;20077;-84
2023/05/06 06:17:43;;;;;;;22.17;16.38;;;;;;;11.59;100.00;101768.59;4992951;28;20551;-84
2023/05/06 06:20:12;;;;;;;22.80;16.83;;;;;;;11.57;100.00;101757.09;4992876;28;20054;-85
2023/05/06 06:22:39;;;;;;;21.65;15.38;;;;;;;11.57;100.00;101751.81;4973721;28;20051;-85
2023/05/06 06:25:08;;;;;;;15.98;14.27;;;;;;;11.54;100.00;101755.31;4968588;28;20369;-83
2023/05/06 06:27:35;;;;;;;20.25;14.90;;;;;;;11.56;100.00;101758.88;4987739;28;20042;-84
2023/05/06 06:30:04;;;;;;;18.67;14.82;;;;;;;11.57;100.00;101752.75;4963974;28;20069;-84
2023/05/06 06:32:31;;;;;;;18.13;14.63;;;;;;;11.61;100.00;101754.53;4958213;28;20407;-85
2023/05/06 06:34:59;;;;;;;15.70;14.07;;;;;;;11.64;100.00;101759.84;4989089;28;20055;-84
2023/05/06 06:37:27;;;;;;;18.02;14.27;;;;;;;11.69;100.00;101768.72;4953434;28;20054;-84
2023/05/06 06:39:54;;;;;;;19.60;15.82;;;;;;;11.76;100.00;101766.16;4989294;28;20054;-84
2023/05/06 06:42:22;;;;;;;21.48;15.50;;;;;;;11.82;100.00;101768.91;4983610;28;20047;-84
2023/05/06 06:45:07;;;;;;;17.95;15.13;;;;;;;11.87;100.00;101777.75;4974389;28;20522;-84
2023/05/06 06:47:35;;;;;;;17.63;14.32;;;;;;;11.91;100.00;101782.25;4943006;28;20069;-85
2023/05/06 06:50:03;;;;;;;18.25;15.27;;;;;;;11.94;100.00;101778.75;4967958;28;20534;-84
2023/05/06 06:52:30;;;;;;;17.73;13.77;;;;;;;11.96;100.00;101788.47;4991066;28;20065;-85
2023/05/06 06:54:57;;;;;;;17.27;15.35;;;;;;;12.00;100.00;101777.09;4995825;28;20511;-84
2023/05/06 06:57:25;;;;;;;16.88;15.05;;;;;;;12.01;100.00;101781.50;4985147;28;20061;-85
2023/05/06 06:59:53;;;;;;;19.42;15.88;;;;;;;12.08;100.00;101787.75;4996325;28;20055;-85
2023/05/06 07:02:21;;;;;;;16.70;14.20;;;;;;;12.15;100.00;101794.84;4958814;28;20069;-83
2023/05/06 07:04:49;;;;;;;18.40;13.95;;;;;;;12.22;100.00;101786.13;5012808;28;20088;-84
2023/05/06 07:07:16;;;;;;;17.08;14.05;;;;;;;12.31;100.00;101788.00;5006244;28;20057;-84
2023/05/06 07:09:43;;;;;;;15.85;14.15;;;;;;;12.35;100.00;101779.25;4994637;28;20042;-84
2023/05/06 07:12:11;;;;;;;16.83;14.48;;;;;;;12.35;100.00;101779.25;4996891;28;20054;-85
2023/05/06 07:14:40;;;;;;;17.55;14.27;;;;;;;12.38;100.00;101779.28;5004140;28;20061;-84
2023/05/06 07:17:07;;;;;;;19.08;15.00;;;;;;;12.42;100.00;101786.38;4997221;28;20050;-84
2023/05/06 07:19:35;;;;;;;20.42;15.07;;;;;;;12.47;100.00;101789.03;4975899;28;20038;-85
2023/05/06 07:22:02;;;;;;;19.20;15.88;;;;;;;12.56;100.00;101791.78;4991482;28;20038;-84
2023/05/06 07:24:30;;;;;;;18.80;15.15;;;;;;;12.68;100.00;101791.94;4981038;28;20061;-86
2023/05/06 07:27:00;;;;;;;18.92;15.40;;;;;;;12.85;100.00;101793.81;5018656;28;20068;-86
2023/05/06 07:29:27;;;;;;;15.98;14.10;;;;;;;12.92;100.00;101795.66;5012425;28;20042;-86
2023/05/06 07:31:55;;;;;;;18.88;14.95;;;;;;;12.96;100.00;101802.72;5002725;28;20061;-86
2023/05/06 07:34:22;;;;;;;15.23;13.23;;;;;;;13.01;100.00;101800.16;4987957;28;20054;-86
2023/05/06 07:36:49;;;;;;;17.27;13.93;;;;;;;13.08;100.00;101796.69;5001369;28;20054;-85
2023/05/06 07:39:17;;;;;;;17.30;14.35;;;;;;;13.13;100.00;101796.69;5000564;28;20060;-85
2023/05/06 07:41:44;;;;;;;17.67;14.55;;;;;;;13.12;100.00;101793.19;4985964;28;20115;-84
2023/05/06 07:44:12;;;;;;;18.63;14.10;;;;;;;13.11;100.00;101794.03;5009716;28;20080;-86
2023/05/06 07:46:39;;;;;;;17.25;13.50;;;;;;;13.17;100.00;101793.19;5031080;28;20129;-84
2023/05/06 07:49:06;;;;;;;18.10;14.50;;;;;;;13.27;100.00;101803.88;5008076;28;20046;-84
2023/05/06 07:51:34;;;;;;;18.75;12.95;;;;;;;13.36;100.00;101796.91;5006960;28;20046;-83
2023/05/06 07:54:01;;;;;;;17.70;14.00;;;;;;;13.41;100.00;101790.75;4994558;28;20057;-84
2023/05/06 07:56:29;;;;;;;17.38;13.45;;;;;;;13.46;100.00;101788.16;5044601;28;20046;-84
2023/05/06 07:58:58;;;;;;;16.20;13.00;;;;;;;13.49;100.00;101790.81;5012485;28;20046;-85
2023/05/06 08:01:29;;;;;;;16.85;13.77;;;;;;;13.52;100.00;101793.47;5034008;28;20064;-84
2023/05/06 08:03:59;;;;;;;21.67;15.50;;;;;;;13.55;100.00;101798.78;5034339;28;20064;-85
2023/05/06 08:06:26;;;;;;;23.50;15.65;;;;;;;13.55;100.00;101804.06;4989678;28;20042;-84
2023/05/06 08:08:56;;;;;;;24.58;17.10;;;;;;;13.55;100.00;101796.13;4999353;28;20054;-84
2023/05/06 08:11:23;;;;;;;16.85;13.25;;;;;;;13.53;100.00;101795.25;5025636;28;20057;-85
2023/05/06 08:13:51;;;;;;;17.60;14.40;;;;;;;13.49;100.00;101790.81;4994661;28;20069;-84
2023/05/06 08:16:18;;;;;;;16.88;15.07;;;;;;;13.48;100.00;101797.00;5040214;28;20544;-84
2023/05/06 08:18:45;;;;;;;17.95;14.38;;;;;;;13.48;100.00;101810.22;5019684;28;20049;-83
2023/05/06 08:21:13;;;;;;;21.88;16.23;;;;;;;13.47;100.00;101800.50;5015486;28;20064;-83
2023/05/06 08:23:40;;;;;;;18.27;15.32;;;;;;;13.49;100.00;101801.41;5017936;28;20042;-84
2023/05/06 08:26:07;;;;;;;23.27;14.98;;;;;;;13.52;100.00;101798.78;5036729;28;20048;-85
2023/05/06 08:28:35;;;;;;;19.45;15.07;;;;;;;13.57;100.00;101812.94;5023300;28;20046;-84
2023/05/06 08:31:02;;;;;;;19.48;15.15;;;;;;;13.64;100.00;101808.56;5007276;28;20052;-84
2023/05/06 08:33:30;;;;;;;17.65;14.43;;;;;;;13.69;100.00;101801.53;4972488;28;20049;-83
2023/05/06 08:35:57;;;;;;;19.85;14.27;;;;;;;13.71;100.00;101809.50;5014711;28;20053;-85
2023/05/06 08:38:25;;;;;;;15.88;12.45;;;;;;;13.79;100.00;101813.06;5005936;28;20067;-85
2023/05/06 08:40:53;;;;;;;18.85;14.85;;;;;;;13.90;100.00;101805.16;5022203;28;20049;-83
2023/05/06 08:43:22;;;;;;;18.77;13.85;;;;;;;14.02;100.00;101806.09;5021778;28;20053;-84
2023/05/06 08:45:50;;;;;;;18.92;14.68;;;;;;;14.16;100.00;101807.94;5016518;28;20060;-83
2023/05/06 08:48:17;;;;;;;19.10;14.20;;;;;;;14.30;100.00;101811.50;5021868;28;20056;-83
2023/05/06 08:50:47;;;;;;;17.60;13.73;;;;;;;14.43;100.00;101815.97;4971081;28;20052;-84
2023/05/06 08:53:15;;;;;;;18.17;14.68;;;;;;;14.53;100.00;101802.72;5035547;28;20050;-82
2023/05/06 08:55:44;;;;;;;18.75;13.50;;;;;;;14.62;100.00;101813.38;5011330;28;20046;-81
2023/05/06 08:58:14;;;;;;;16.10;12.77;;;;;;;14.73;100.00;101808.09;5011892;28;20053;-82
2023/05/06 09:00:42;;;;;;;13.80;11.50;;;;;;;14.74;100.00;101805.44;4982360;28;20048;-82
2023/05/06 09:03:09;;;;;;;14.90;11.13;;;;;;;14.73;100.00;101811.63;5008378;28;20049;-83
2023/05/06 09:05:37;;;;;;;14.90;11.75;;;;;;;14.76;100.00;101816.03;4996550;28;20068;-82
2023/05/06 09:08:04;;;;;;;14.13;11.95;;;;;;;14.74;100.00;101817.81;5039339;28;20045;-83
2023/05/06 09:10:41;;;;;;;15.38;12.38;;;;;;;14.85;100.00;101818.72;5012067;28;20064;-82
2023/05/06 09:13:18;;;;;;;16.65;12.35;;;;;;;14.99;100.00;101816.97;5027495;28;20045;-83
2023/05/06 09:15:47;;;;;;;16.95;12.10;;;;;;;15.10;100.00;101810.75;5026315;28;20050;-82
2023/05/06 09:18:15;;;;;;;13.95;11.55;;;;;;;15.28;100.00;101809.88;5001042;28;20058;-81
2023/05/06 09:20:45;;;;;;;19.75;12.48;;;;;;;15.42;100.00;101816.03;4996354;28;20053;-82
2023/05/06 09:23:15;;;;;;;14.07;11.77;;;;;;;15.42;100.00;101812.50;4973863;28;20064;-80
2023/05/06 09:25:45;;;;;;;15.50;11.63;;;;;;;15.40;100.00;101813.38;5010071;28;20045;-80
2023/05/06 09:28:13;;;;;;;12.02;10.63;;;;;;;15.35;100.00;101823.16;5012393;28;20053;-81
2023/05/06 09:30:42;;;;;;;13.30;11.27;;;;;;;15.38;100.00;101822.25;5038281;28;20082;-81
2023/05/06 09:33:10;;;;;;;15.50;11.57;;;;;;;15.38;100.00;101816.94;4987055;28;20045;-81
2023/05/06 09:35:43;;;;;;;13.55;11.30;;;;;;;15.49;100.00;101806.31;5010819;28;20309;-80
2023/05/06 09:38:10;;;;;;;13.70;9.90;;;;;;;15.68;100.00;101815.13;4965652;28;20072;-81
2023/05/06 09:40:38;;;;;;;11.95;8.85;;;;;;;15.83;100.00;101815.09;4986336;28;20069;-81
2023/05/06 09:43:06;;;;;;;11.20;9.13;;;;;;;15.99;100.00;101810.59;5020065;28;20076;-82
2023/05/06 09:45:35;;;;;;;12.18;9.60;;;;;;;16.05;100.00;101809.69;4993013;28;20057;-81
2023/05/06 09:48:02;;;;;;;11.07;9.63;;;;;;;16.05;100.00;101809.69;5032641;28;20041;-81
2023/05/06 09:50:31;;;;;;;10.77;8.82;;;;;;;16.08;100.00;101799.06;5004043;28;20493;-82
2023/05/06 09:52:59;;;;;;;12.13;9.02;;;;;;;16.18;100.00;101803.44;5006856;28;20438;-82
2023/05/06 09:55:28;;;;;;;9.48;8.18;;;;;;;16.33;100.00;101805.13;4979498;28;20046;-82
2023/05/06 09:57:57;;;;;;;10.15;7.88;;;;;;;16.46;100.00;101811.28;5009917;28;20049;-81
2023/05/06 10:00:27;;;;;;;6.18;5.57;;;;;;;16.55;100.00;101806.78;5005392;28;20030;-81
2023/05/06 10:02:57;;;;;;;10.02;6.85;;;;;;;16.66;100.00;101814.69;5031671;28;20049;-81
2023/05/06 10:05:25;;;;;;;12.75;10.38;;;;;;;16.62;100.00;101804.97;5007727;28;20502;-80
2023/05/06 10:07:55;;;;;;;11.25;8.77;;;;;;;16.58;100.00;101808.56;4993104;28;20050;-82
2023/05/06 10:10:23;;;;;;;11.57;9.48;;;;;;;16.53;100.00;101808.56;4961335;28;20057;-82
2023/05/06 10:12:52;;;;;;;14.18;10.00;;;;;;;16.54;100.00;101798.81;5012608;28;20410;-81
2023/05/06 10:15:19;;;;;;;11.45;9.65;;;;;;;16.56;100.00;101803.25;5005360;28;20065;-81
2023/05/06 10:17:48;;;;;;;10.23;8.15;;;;;;;16.57;100.00;101793.47;4989610;28;20060;-82
2023/05/06 10:20:18;;;;;;;13.30;9.40;;;;;;;16.53;100.00;101803.25;5005812;28;20042;-81
2023/05/06 10:22:52;;;;;;;10.27;8.90;;;;;;;16.51;100.00;101796.19;5016197;28;20053;-81
2023/05/06 10:25:35;;;;;;;11.32;9.52;;;;;;;16.51;100.00;101790.84;4971663;28;21201;-81
2023/05/06 10:28:07;;;;;;;10.23;8.73;;;;;;;16.61;100.00;101802.31;5023508;28;20060;-82
2023/05/06 10:30:52;;;;;;;9.00;8.10;;;;;;;16.64;100.00;101794.31;4990952;28;20046;-81
2023/05/06 10:33:22;;;;;;;8.45;7.47;;;;;;;16.71;100.00;101796.94;4999392;28;20041;-82
2023/05/06 10:36:19;;;;;;;8.97;7.57;;;;;;;16.80;100.00;101795.97;4993240;28;20045;-81
2023/05/06 10:38:56;;;;;;;8.13;7.32;;;;;;;16.91;100.00;101795.91;5005301;28;20300;-83
2023/05/06 10:41:26;;;;;;;9.27;6.85;;;;;;;16.95;100.00;101789.66;4957443;28;20045;-82
2023/05/06 10:43:58;;;;;;;8.55;7.60;;;;;;;17.08;100.00;101793.13;4994869;28;20066;-81
2023/05/06 10:46:29;;;;;;;8.65;7.28;;;;;;;17.14;100.00;101793.06;4993438;28;20057;-82
2023/05/06 10:49:03;;;;;;;8.27;7.32;;;;;;;17.06;100.00;101793.13;4992477;28;20068;-82
2023/05/06 10:51:41;;;;;;;9.00;6.95;;;;;;;17.05;100.00;101795.78;5008966;28;20052;-81
2023/05/06 10:54:18;;;;;;;7.20;6.50;;;;;;;16.94;100.00;101795.91;5032020;28;20053;-81
2023/05/06 10:56:48;;;;;;;7.65;6.22;;;;;;;16.91;100.00;101788.81;5006921;28;20060;-84
2023/05/06 10:59:29;;;;;;;7.57;6.07;;;;;;;16.92;100.00;101787.94;5026323;28;20651;-84
2023/05/06 11:02:06;;;;;;;8.00;6.50;;;;;;;16.86;100.00;101779.09;5012290;28;20046;-84
2023/05/06 11:04:33;;;;;;;6.43;5.80;;;;;;;16.89;100.00;101779.94;5006605;28;20058;-84
2023/05/06 11:07:13;;;;;;;9.90;6.40;;;;;;;17.02;100.00;101778.06;5026813;28;20054;-83
2023/05/06 11:09:58;;;;;;;6.70;6.00;;;;;;;17.21;100.00;101783.25;5010517;28;20057;-83
2023/05/06 11:13:04;;;;;;;8.75;6.30;;;;;;;17.25;100.00;101779.66;4965299;28;20064;-80
2023/05/06 11:15:53;;;;;;;9.68;6.72;;;;;;;17.27;100.00;101770.72;5008337;28;20053;-79